Dobrodošli na spletni strani vremenske postaje Senovo. Vse informacije so informativnega značaja, saj vremenska postaja ni del državne mreže meteoroloških postaj. AKTUALNIH OBVESTIL NI.


Sneg/Led Od: 21-02-2018 00:00 Do: 23-02-2018 23:59 Opozorilo za: Sneg/Led Stopnja: Rumena info button
Veter Od: 21-02-2018 00:00 Do: 22-02-2018 23:59 Opozorilo za: Veter Stopnja: Rumena info button

Pogled proti Armezu več informacij Pogled proti Armezu


Lisca več informacij Lisca


Radar strel več informacij blitzortung!


opozorilo za sneg/led več informacij rain snow radar


Obiščite še:

Template documentation
and downloads

And another site



Weather Underground, zgodovina - Tekstovno

Dnevni povzetek za December 27, 2017 Enote:  Angleško    Metrično   Obe
« Predhodni Dan
Naslednji Dan »
Dnevni Tedenski Mesečni Letni Po meri
  Višja: Nižja: Povprečje:
Temperatura: TemperatureC °F 3.8 °F 7.6 °F
Točka rosišča: DewpointC °F 1.2 °F 5.3 °F
Vlažnost: Humidity % 77 % 86 %
Hitrost vetra: WindSpeedKMH mph 0.0 mph 1.9 mph
Sunki vetra: WindSpeedGustKMH mph - -
Veter:- - SW
Zračni tlak: PressurehPa in 987.0 in -
Padavine: 0.0 in    
Historical Graphs
 
 
Tabelarni podarki za December 27, 2017
Čas Temperatura Točka rosišča Zračni tlak Veter Hitrost vetra Sunki vetra Vlažnost Intenziteta padavin (urna)
TemperatureC °F DewpointC °F PressurehPa in Calm     Humidity % HourlyPrecipMM in
00:00 5.1 °F 2.1 °F 1007.0 in Calm     81 % 0.0 in
00:03 5.0 °F 2.0 °F 1007.0 in Calm     81 % 0.0 in
00:08 4.7 °F 1.7 °F 1007.0 in NW 0.2 mph 4.0 mph 81 % 0.0 in
00:09 4.7 °F 1.7 °F 1007.0 in NW 0.2 mph 4.0 mph 81 % 0.0 in
00:14 4.6 °F 1.6 °F 1007.0 in NW 0.8 mph 4.0 mph 81 % 0.0 in
00:18 4.5 °F 1.5 °F 1007.0 in NW 0.6 mph 4.0 mph 81 % 0.0 in
00:20 4.5 °F 1.5 °F 1007.0 in NW 0.3 mph 3.2 mph 81 % 0.0 in
00:25 4.4 °F 1.6 °F 1007.0 in Calm     82 % 0.0 in
00:30 4.3 °F 1.5 °F 1007.0 in Calm     82 % 0.0 in
00:32 4.3 °F 1.5 °F 1007.0 in Calm     82 % 0.0 in
00:37 4.2 °F 1.4 °F 1007.0 in Calm     82 % 0.0 in
00:41 4.1 °F 1.3 °F 1007.0 in Calm     82 % 0.0 in
00:44 4.1 °F 1.3 °F 1007.0 in Calm     82 % 0.0 in
00:49 4.0 °F 1.4 °F 1007.0 in Calm     83 % 0.0 in
00:52 3.9 °F 1.3 °F 1007.0 in Calm     83 % 0.0 in
00:57 3.8 °F 1.2 °F 1007.0 in Calm     83 % 0.0 in
00:58 3.8 °F 1.2 °F 1007.0 in Calm     83 % 0.0 in
00:59 3.8 °F 1.2 °F 1007.0 in Calm     83 % 0.0 in
01:04 4.0 °F 1.4 °F 1007.0 in Calm     83 % 0.0 in
01:05 4.0 °F 1.4 °F 1007.0 in Calm   1.8 mph 83 % 0.0 in
01:10 4.0 °F 1.6 °F 1007.0 in WNW 0.2 mph 3.2 mph 84 % 0.0 in
01:11 4.0 °F 1.6 °F 1007.0 in WNW 0.2 mph 3.2 mph 84 % 0.0 in
01:14 4.0 °F 1.6 °F 1006.0 in WNW 0.2 mph 3.2 mph 84 % 0.0 in
01:16 4.1 °F 1.6 °F 1006.0 in WNW 0.2 mph 3.2 mph 84 % 0.0 in
01:21 4.1 °F 1.6 °F 1006.0 in Calm     84 % 0.0 in
01:23 4.1 °F 1.6 °F 1006.0 in Calm     84 % 0.0 in
01:28 4.2 °F 1.9 °F 1006.0 in Calm     85 % 0.0 in
01:29 4.2 °F 1.9 °F 1006.0 in Calm     85 % 0.0 in
01:34 4.3 °F 2.0 °F 1006.0 in Calm     85 % 0.0 in
01:37 4.3 °F 2.0 °F 1006.0 in Calm     85 % 0.0 in
01:42 4.3 °F 2.0 °F 1006.0 in Calm     85 % 0.0 in
01:43 4.4 °F 2.1 °F 1006.0 in Calm     85 % 0.0 in
01:48 4.5 °F 2.3 °F 1005.0 in Calm     86 % 0.0 in
01:53 4.6 °F 2.4 °F 1005.0 in Calm     86 % 0.0 in
01:54 4.6 °F 2.4 °F 1005.0 in Calm     86 % 0.0 in
01:56 4.6 °F 2.4 °F 1005.0 in Calm     86 % 0.0 in
02:01 4.7 °F 2.6 °F 1005.0 in Calm     86 % 0.0 in
02:06 4.7 °F 2.7 °F 1005.0 in Calm     87 % 0.0 in
02:07 4.7 °F 2.7 °F 1005.0 in Calm     87 % 0.0 in
02:12 4.8 °F 2.8 °F 1005.0 in Calm     87 % 0.0 in
02:17 4.8 °F 2.8 °F 1005.0 in Calm     87 % 0.0 in
02:18 4.8 °F 2.8 °F 1005.0 in Calm     87 % 0.0 in
02:23 4.9 °F 2.9 °F 1005.0 in Calm     87 % 0.0 in
02:24 4.9 °F 2.9 °F 1005.0 in Calm     87 % 0.0 in
02:26 5.0 °F 3.0 °F 1005.0 in Calm     87 % 0.0 in
02:31 5.0 °F 3.0 °F 1003.9 in Calm     87 % 0.0 in
02:36 5.0 °F 3.0 °F 1003.9 in Calm     87 % 0.0 in
02:39 5.0 °F 3.2 °F 1003.9 in Calm     88 % 0.0 in
02:44 5.0 °F 3.2 °F 1005.0 in NW 0.2 mph 3.5 mph 88 % 0.0 in
02:47 5.1 °F 3.3 °F 1005.0 in WNW 0.2 mph 3.5 mph 88 % 0.0 in
02:50 5.1 °F 3.3 °F 1005.0 in West 0.2 mph 3.5 mph 88 % 0.0 in
02:55 5.1 °F 3.3 °F 1005.0 in SSW 0.2 mph 2.6 mph 88 % 0.0 in
02:56 5.1 °F 3.3 °F 1005.0 in SSW 0.2 mph 2.6 mph 88 % 0.0 in
03:01 5.1 °F 3.3 °F 1005.0 in Calm   1.8 mph 88 % 0.0 in
03:04 5.1 °F 3.3 °F 1005.0 in Calm   1.8 mph 88 % 0.0 in
03:09 5.0 °F 3.3 °F 1005.0 in Calm   1.8 mph 89 % 0.0 in
03:14 4.9 °F 3.2 °F 1005.0 in Calm     89 % 0.0 in
03:19 4.8 °F 3.2 °F 1005.0 in NW 0.2 mph 2.6 mph 89 % 0.0 in
03:22 4.8 °F 3.2 °F 1005.0 in NW 0.2 mph 2.6 mph 89 % 0.0 in
03:27 4.8 °F 3.2 °F 1005.0 in Calm   1.8 mph 89 % 0.0 in
03:28 4.8 °F 3.2 °F 1003.9 in Calm     89 % 0.0 in
03:30 4.7 °F 3.1 °F 1003.9 in WNW 0.2 mph 4.0 mph 89 % 0.0 in
03:34 4.7 °F 3.1 °F 1003.9 in WNW 0.3 mph 4.0 mph 89 % 0.0 in
03:35 4.7 °F 3.1 °F 1003.9 in WNW 0.3 mph 4.0 mph 89 % 0.0 in
03:40 4.6 °F 3.1 °F 1003.9 in NNW 0.3 mph 3.2 mph 90 % 0.0 in
03:41 4.6 °F 3.1 °F 1003.9 in NNW 0.3 mph 3.2 mph 90 % 0.0 in
03:46 4.6 °F 3.1 °F 1002.9 in NW 1.1 mph 4.7 mph 90 % 0.0 in
03:51 4.6 °F 3.1 °F 1002.9 in WNW 1.1 mph 4.7 mph 90 % 0.0 in
03:52 4.6 °F 3.1 °F 1002.9 in WNW 1.0 mph 4.7 mph 90 % 0.0 in
03:53 4.6 °F 3.1 °F 1002.9 in WNW 1.0 mph 4.7 mph 90 % 0.0 in
03:57 4.6 °F 3.1 °F 1002.9 in NW 0.6 mph 4.0 mph 90 % 0.0 in
03:58 4.6 °F 3.1 °F 1002.9 in NW 0.8 mph 4.0 mph 90 % 0.0 in
04:03 4.7 °F 3.2 °F 1002.9 in NW 1.8 mph 4.3 mph 90 % 0.0 in
04:04 4.7 °F 3.2 °F 1002.9 in NW 1.8 mph 4.3 mph 90 % 0.0 in
04:06 4.7 °F 3.2 °F 1002.9 in NW 1.6 mph 4.3 mph 90 % 0.0 in
04:11 4.7 °F 3.2 °F 1002.9 in NW 1.0 mph 4.3 mph 90 % 0.0 in
04:16 4.7 °F 3.3 °F 1003.9 in Calm     91 % 0.0 in
04:21 4.8 °F 3.4 °F 1003.9 in NW 0.3 mph 5.0 mph 91 % 0.0 in
04:24 4.8 °F 3.4 °F 1003.9 in NW 1.4 mph 5.8 mph 91 % 0.0 in
04:29 4.9 °F 3.6 °F 1002.9 in NW 2.9 mph 5.8 mph 91 % 0.0 in
04:30 4.9 °F 3.6 °F 1002.9 in NW 2.7 mph 5.8 mph 91 % 0.0 in
04:33 4.9 °F 3.6 °F 1002.9 in NW 1.8 mph 5.8 mph 91 % 0.0 in
04:37 5.0 °F 3.7 °F 1002.9 in NW 0.2 mph 2.6 mph 91 % 0.0 in
04:42 5.0 °F 3.7 °F 1002.9 in Calm     91 % 0.0 in
04:46 5.0 °F 3.7 °F 1001.9 in Calm     91 % 0.0 in
04:49 5.1 °F 3.8 °F 1001.9 in Calm     91 % 0.0 in
04:54 5.1 °F 3.8 °F 1001.9 in Calm     91 % 0.0 in
04:56 5.1 °F 3.8 °F 1001.9 in Calm     91 % 0.0 in
04:59 5.1 °F 3.9 °F 1003.9 in Calm     92 % 0.0 in
05:04 5.1 °F 3.9 °F 1003.9 in WNW 0.2 mph 4.3 mph 92 % 0.0 in
05:09 5.1 °F 3.9 °F 1003.9 in WNW 0.6 mph 4.3 mph 92 % 0.0 in
05:10 5.1 °F 3.9 °F 1003.9 in WNW 0.6 mph 4.3 mph 92 % 0.0 in
05:15 5.1 °F 3.9 °F 1002.9 in West 0.2 mph 3.2 mph 92 % 0.0 in
05:16 5.1 °F 3.9 °F 1002.9 in West 0.2 mph 3.2 mph 92 % 0.0 in
05:18 5.1 °F 3.9 °F 1002.9 in West 0.3 mph 3.2 mph 92 % 0.0 in
05:23 5.1 °F 3.9 °F 1002.9 in West 0.3 mph 3.2 mph 92 % 0.0 in
05:25 5.1 °F 3.9 °F 1002.9 in SW 0.3 mph 2.6 mph 92 % 0.0 in
05:27 5.1 °F 3.9 °F 1002.9 in Calm     92 % 0.0 in
05:32 5.1 °F 3.9 °F 1002.9 in Calm     92 % 0.0 in
05:33 5.1 °F 3.9 °F 1002.9 in Calm     92 % 0.0 in
05:34 5.1 °F 3.9 °F 1002.9 in Calm     92 % 0.0 in
05:39 5.1 °F 3.9 °F 1002.9 in Calm   1.4 mph 92 % 0.0 in
05:40 5.1 °F 3.9 °F 1002.9 in NW 0.2 mph 4.3 mph 92 % 0.0 in
05:43 5.2 °F 4.0 °F 1002.9 in NW 0.8 mph 4.3 mph 92 % 0.0 in
05:47 5.2 °F 4.0 °F 1002.9 in NW 1.1 mph 4.3 mph 92 % 0.0 in
05:52 5.2 °F 4.0 °F 1002.9 in NW 0.5 mph 3.5 mph 92 % 0.0 in
05:54 5.1 °F 3.9 °F 1002.9 in North 0.2 mph   92 % 0.0 in
05:58 5.1 °F 3.9 °F 1001.9 in Calm     92 % 0.0 in
06:03 5.2 °F 4.0 °F 1001.9 in Calm     92 % 0.0 in
06:05 5.2 °F 4.0 °F 1001.9 in Calm     92 % 0.0 in
06:06 5.2 °F 4.2 °F 1001.9 in Calm     93 % 0.0 in
06:10 5.2 °F 4.2 °F 1001.9 in Calm     93 % 0.0 in
06:14 5.2 °F 4.2 °F 1001.9 in Calm     93 % 0.0 in
06:16 5.2 °F 4.2 °F 1001.9 in Calm     93 % 0.0 in
06:21 5.2 °F 4.2 °F 1001.9 in Calm     93 % 0.0 in
06:26 5.2 °F 4.2 °F 1001.9 in Calm     93 % 0.0 in
06:31 5.2 °F 4.2 °F 1000.9 in Calm     93 % 0.0 in
06:35 5.2 °F 4.2 °F 1000.9 in Calm   3.2 mph 93 % 0.0 in
06:39 5.3 °F 4.3 °F 1000.9 in SW 0.2 mph 3.2 mph 93 % 0.3 in
06:41 5.3 °F 4.3 °F 1000.9 in SW 0.2 mph 3.2 mph 93 % 0.3 in
06:46 5.3 °F 4.3 °F 1000.9 in WSW 1.9 mph 6.4 mph 93 % 0.3 in
06:50 5.3 °F 4.3 °F 1000.9 in West 2.7 mph 6.4 mph 93 % 0.3 in
06:52 5.3 °F 4.3 °F 1000.9 in West 2.7 mph 6.4 mph 93 % 0.3 in
06:57 5.4 °F 4.3 °F 1000.9 in NW 1.4 mph 5.0 mph 93 % 0.3 in
07:02 5.4 °F 4.3 °F 1000.9 in NW 0.8 mph 5.0 mph 93 % 0.3 in
07:03 5.4 °F 4.3 °F 1000.9 in NW 0.8 mph 5.0 mph 93 % 0.3 in
07:09 5.4 °F 4.3 °F 1000.9 in Calm     93 % 0.3 in
07:14 5.4 °F 4.3 °F 1000.9 in Calm     93 % 0.3 in
07:15 5.4 °F 4.3 °F 1000.9 in Calm     93 % 0.3 in
07:18 5.4 °F 4.5 °F 1000.9 in Calm     94 % 0.3 in
07:21 5.4 °F 4.5 °F 1000.9 in Calm     94 % 0.3 in
07:26 5.4 °F 4.5 °F 1000.9 in Calm     94 % 0.3 in
07:27 5.4 °F 4.5 °F 1000.9 in Calm     94 % 0.3 in
07:32 5.5 °F 4.6 °F 1000.9 in Calm   1.4 mph 94 % 0.3 in
07:37 5.4 °F 4.5 °F 1000.9 in Calm   1.4 mph 94 % 0.0 in
07:40 5.4 °F 4.5 °F 1000.9 in Calm     94 % 0.0 in
07:41 5.4 °F 4.5 °F 1000.9 in Calm     94 % 0.0 in
07:45 5.4 °F 4.5 °F 1000.9 in Calm     94 % 0.0 in
07:50 5.5 °F 4.6 °F 1000.9 in Calm     94 % 0.0 in
07:52 5.5 °F 4.6 °F 1000.9 in Calm     94 % 0.0 in
07:55 5.5 °F 4.6 °F 1000.9 in Calm     94 % 0.0 in
07:58 5.5 °F 4.6 °F 1000.9 in Calm     94 % 0.0 in
08:03 5.6 °F 4.7 °F 1000.9 in Calm     94 % 0.0 in
08:08 5.6 °F 4.7 °F 1000.9 in Calm     94 % 0.0 in
08:10 5.7 °F 4.8 °F 1000.9 in Calm     94 % 0.0 in
08:15 5.7 °F 4.8 °F 1000.9 in Calm     94 % 0.0 in
08:16 5.7 °F 4.8 °F 1000.9 in Calm     94 % 0.0 in
08:19 5.8 °F 4.9 °F 1000.9 in Calm     94 % 0.0 in
08:22 5.8 °F 4.9 °F 1000.9 in Calm     94 % 0.0 in
08:27 6.0 °F 5.1 °F 1000.9 in Calm     94 % 0.0 in
08:32 6.2 °F 5.3 °F 1000.9 in South 0.5 mph 3.5 mph 94 % 0.0 in
08:37 6.3 °F 5.4 °F 1000.9 in South 0.5 mph 3.5 mph 94 % 0.0 in
08:40 6.3 °F 5.4 °F 1000.9 in North 0.2 mph   94 % 0.0 in
08:44 6.3 °F 5.6 °F 1000.9 in Calm     95 % 0.0 in
08:48 6.4 °F 5.7 °F 1000.9 in Calm     95 % 0.0 in
08:50 6.4 °F 5.7 °F 1000.9 in Calm     95 % 0.0 in
08:55 6.4 °F 5.7 °F 1000.9 in Calm     95 % 0.0 in
08:57 6.4 °F 5.7 °F 1000.9 in Calm     95 % 0.0 in
09:01 6.5 °F 5.8 °F 1000.9 in Calm     95 % 0.0 in
09:06 6.5 °F 5.8 °F 1000.9 in Calm     95 % 0.0 in
09:08 6.5 °F 5.8 °F 1000.9 in Calm     95 % 0.0 in
09:13 6.5 °F 5.8 °F 999.9 in Calm     95 % 0.0 in
09:14 6.5 °F 5.8 °F 999.9 in Calm     95 % 0.0 in
09:19 6.6 °F 5.8 °F 999.9 in Calm     95 % 0.0 in
09:24 6.7 °F 5.9 °F 999.9 in Calm     95 % 0.0 in
09:25 6.7 °F 5.9 °F 999.9 in Calm     95 % 0.0 in
09:28 6.8 °F 6.1 °F 999.9 in Calm     95 % 0.0 in
09:33 6.8 °F 6.1 °F 999.9 in Calm     95 % 0.0 in
09:34 6.8 °F 6.1 °F 999.9 in Calm     95 % 0.0 in
09:39 6.9 °F 6.2 °F 999.9 in Calm     95 % 0.0 in
09:44 7.0 °F 6.3 °F 999.9 in Calm     95 % 0.0 in
09:45 7.0 °F 6.3 °F 999.9 in Calm     95 % 0.0 in
09:50 7.2 °F 6.4 °F 999.9 in Calm     95 % 0.0 in
09:51 7.2 °F 6.4 °F 999.9 in Calm     95 % 0.0 in
09:56 7.3 °F 6.6 °F 999.9 in Calm     95 % 0.0 in
09:59 7.4 °F 6.7 °F 999.9 in Calm     95 % 0.0 in
10:01 7.5 °F 6.8 °F 999.9 in Calm     95 % 0.0 in
10:05 7.6 °F 6.8 °F 999.9 in Calm     95 % 0.0 in
10:10 7.8 °F 7.1 °F 999.9 in Calm     95 % 0.0 in
10:15 7.9 °F 7.2 °F 999.9 in Calm     95 % 0.0 in
10:20 8.0 °F 7.2 °F 999.9 in Calm     95 % 0.0 in
10:25 8.1 °F 7.3 °F 999.9 in WNW 0.3 mph 4.0 mph 95 % 0.0 in
10:28 8.2 °F 7.4 °F 998.9 in WNW 0.3 mph 4.0 mph 95 % 0.0 in
10:31 8.2 °F 7.4 °F 998.9 in WNW 0.3 mph 4.0 mph 95 % 0.0 in
10:36 8.4 °F 7.7 °F 998.9 in Calm   2.6 mph 95 % 0.0 in
10:41 8.5 °F 7.7 °F 998.9 in Calm   2.6 mph 95 % 0.0 in
10:42 8.5 °F 7.7 °F 998.9 in Calm   2.6 mph 95 % 0.0 in
10:45 8.6 °F 7.8 °F 998.9 in Calm   1.8 mph 95 % 0.0 in
10:50 8.6 °F 7.8 °F 998.9 in WSW 0.3 mph 6.4 mph 95 % 0.0 in
10:52 8.7 °F 7.8 °F 998.9 in West 1.1 mph 6.4 mph 94 % 0.0 in
10:57 8.7 °F 7.8 °F 998.9 in West 1.4 mph 6.4 mph 94 % 0.0 in
10:58 8.7 °F 7.8 °F 998.9 in West 1.4 mph 6.4 mph 94 % 0.0 in
11:02 8.7 °F 7.8 °F 998.9 in West 0.6 mph 5.5 mph 94 % 0.0 in
11:03 8.8 °F 7.9 °F 998.9 in SW 0.6 mph 5.5 mph 94 % 0.0 in
11:08 8.8 °F 7.9 °F 998.9 in SW 0.8 mph 5.5 mph 94 % 0.0 in
11:09 8.8 °F 7.9 °F 998.9 in SW 0.8 mph 5.5 mph 94 % 0.0 in
11:12 8.8 °F 7.9 °F 998.9 in SW 1.4 mph 5.5 mph 94 % 0.0 in
11:16 8.8 °F 7.9 °F 998.9 in SW 1.6 mph 5.5 mph 94 % 0.0 in
11:21 8.9 °F 7.8 °F 998.9 in WSW 1.4 mph 5.5 mph 93 % 0.0 in
11:23 8.9 °F 7.8 °F 998.9 in West 1.3 mph 6.1 mph 93 % 0.0 in
11:28 9.0 °F 7.9 °F 998.9 in West 1.8 mph 6.1 mph 93 % 0.0 in
11:32 9.3 °F 8.1 °F 998.9 in WSW 1.9 mph 6.4 mph 92 % 0.0 in
11:37 9.4 °F 8.2 °F 998.9 in WSW 2.6 mph 11.6 mph 92 % 0.0 in
11:38 9.4 °F 8.2 °F 998.9 in WSW 3.2 mph 11.6 mph 92 % 0.0 in
11:40 9.5 °F 8.3 °F 998.9 in WSW 4.2 mph 11.6 mph 92 % 0.0 in
11:45 9.6 °F 8.4 °F 997.9 in WSW 3.5 mph 11.6 mph 92 % 0.0 in
11:50 9.7 °F 8.3 °F 997.9 in SSW 2.7 mph 6.9 mph 91 % 0.0 in
11:56 9.7 °F 8.3 °F 997.9 in SSW 3.1 mph 6.4 mph 91 % 0.0 in
12:01 9.7 °F 8.1 °F 996.8 in SW 3.2 mph 6.4 mph 90 % 0.0 in
12:02 9.7 °F 8.1 °F 996.8 in SW 3.2 mph 6.4 mph 90 % 0.0 in
12:07 9.8 °F 8.1 °F 996.8 in WSW 1.9 mph 6.4 mph 89 % 0.0 in
12:10 9.8 °F 8.1 °F 996.8 in WNW 1.3 mph 6.4 mph 89 % 0.0 in
12:13 9.8 °F 8.1 °F 996.8 in West 1.8 mph 6.4 mph 89 % 0.0 in
12:16 9.8 °F 7.9 °F 996.8 in West 2.1 mph 6.4 mph 88 % 0.0 in
12:18 9.9 °F 8.0 °F 996.8 in West 2.1 mph 5.8 mph 88 % 0.0 in
12:23 9.9 °F 7.8 °F 996.8 in NW 0.5 mph 3.5 mph 87 % 0.0 in
12:25 9.9 °F 7.8 °F 996.8 in NNW 0.2 mph 3.5 mph 87 % 0.0 in
12:29 9.9 °F 7.7 °F 996.8 in NNW 0.2 mph 2.1 mph 86 % 0.0 in
12:32 9.9 °F 7.7 °F 996.8 in Calm     86 % 0.0 in
12:37 9.9 °F 7.5 °F 996.8 in Calm     85 % 0.0 in
12:41 9.9 °F 7.5 °F 996.8 in Calm     85 % 0.0 in
12:44 9.9 °F 7.5 °F 996.8 in Calm     85 % 0.0 in
12:49 9.8 °F 7.2 °F 996.8 in Calm     84 % 0.0 in
12:54 9.8 °F 7.2 °F 996.8 in Calm     84 % 0.0 in
12:57 9.8 °F 7.2 °F 996.8 in Calm     84 % 0.0 in
13:00 9.8 °F 7.1 °F 996.2 in Calm     83 % 0.0 in
13:03 9.8 °F 7.1 °F 996.2 in Calm     83 % 0.0 in
13:08 9.9 °F 7.2 °F 996.2 in Calm     83 % 0.0 in
13:09 9.9 °F 7.2 °F 996.2 in Calm     83 % 0.0 in
13:10 9.9 °F 7.2 °F 996.2 in Calm     83 % 0.0 in
13:14 10.0 °F 7.1 °F 996.2 in Calm     82 % 0.0 in
13:16 10.0 °F 7.1 °F 996.2 in Calm     82 % 0.0 in
13:21 10.0 °F 7.1 °F 996.2 in Calm     82 % 0.0 in
13:23 10.0 °F 7.1 °F 996.2 in Calm     82 % 0.0 in
13:28 10.0 °F 6.9 °F 996.2 in Calm     81 % 0.0 in
13:32 10.0 °F 6.9 °F 996.2 in Calm     81 % 0.0 in
13:35 10.0 °F 6.9 °F 996.2 in Calm     81 % 0.0 in
13:40 9.9 °F 6.8 °F 996.2 in Calm     81 % 0.0 in
13:41 9.9 °F 6.8 °F 996.2 in Calm     81 % 0.0 in
13:46 9.9 °F 6.6 °F 996.2 in SW 1.0 mph 4.3 mph 80 % 0.0 in
13:51 9.9 °F 6.6 °F 996.2 in WSW 2.4 mph 4.3 mph 80 % 0.0 in
13:55 9.8 °F 6.5 °F 996.2 in WSW 2.3 mph 4.0 mph 80 % 0.0 in
13:56 9.8 °F 6.5 °F 996.2 in WSW 1.9 mph 3.5 mph 80 % 0.0 in
14:01 9.8 °F 6.5 °F 994.1 in SW 0.6 mph 3.5 mph 80 % 0.0 in
14:02 9.8 °F 6.5 °F 994.1 in SSW 0.8 mph 4.3 mph 80 % 0.0 in
14:07 9.8 °F 6.5 °F 994.1 in SW 2.6 mph 5.8 mph 80 % 0.0 in
14:08 9.8 °F 6.5 °F 994.1 in SW 2.7 mph 5.8 mph 80 % 0.0 in
14:12 9.8 °F 6.5 °F 994.1 in SW 4.0 mph 6.1 mph 80 % 0.0 in
14:15 9.8 °F 6.5 °F 995.1 in SW 4.2 mph 6.1 mph 80 % 0.0 in
14:19 9.7 °F 6.4 °F 995.1 in SW 3.9 mph 6.1 mph 80 % 0.0 in
14:21 9.7 °F 6.4 °F 995.1 in SW 2.9 mph 5.5 mph 80 % 0.0 in
14:26 9.7 °F 6.4 °F 995.1 in SW 0.6 mph 4.3 mph 80 % 0.0 in
14:30 9.6 °F 6.3 °F 995.1 in Calm     80 % 0.0 in
14:31 9.6 °F 6.3 °F 995.1 in Calm     80 % 0.0 in
14:36 9.6 °F 6.3 °F 995.1 in Calm     80 % 0.0 in
14:39 9.6 °F 6.3 °F 995.1 in Calm     80 % 0.0 in
14:43 9.6 °F 6.3 °F 995.1 in Calm     80 % 0.0 in
14:48 9.6 °F 6.3 °F 995.1 in SSE 0.2 mph 3.2 mph 80 % 0.0 in
14:51 9.6 °F 6.3 °F 995.1 in SW 1.1 mph 5.0 mph 80 % 0.0 in
14:56 9.5 °F 6.2 °F 995.1 in SW 1.6 mph 5.0 mph 80 % 0.0 in
14:58 9.5 °F 6.2 °F 995.1 in SW 1.4 mph 5.0 mph 80 % 0.0 in
15:03 9.4 °F 6.1 °F 994.1 in SW 0.2 mph 3.2 mph 80 % 0.0 in
15:05 9.4 °F 6.1 °F 994.1 in SSW 0.3 mph 3.2 mph 80 % 0.0 in
15:06 9.4 °F 6.1 °F 994.1 in SSW 0.3 mph 3.2 mph 80 % 0.0 in
15:11 9.3 °F 6.0 °F 994.1 in SSW 0.3 mph 3.2 mph 80 % 0.0 in
15:13 9.3 °F 6.0 °F 993.1 in SW 0.3 mph 3.2 mph 80 % 0.0 in
15:18 9.3 °F 6.0 °F 993.1 in WSW 0.5 mph 3.2 mph 80 % 0.0 in
15:19 9.2 °F 5.9 °F 993.1 in WSW 0.5 mph 3.2 mph 80 % 0.0 in
15:24 9.2 °F 5.9 °F 993.1 in WSW 0.3 mph 2.6 mph 80 % 0.0 in
15:27 9.1 °F 5.8 °F 993.1 in SSW 0.5 mph 4.0 mph 80 % 0.0 in
15:32 9.0 °F 5.7 °F 993.1 in WSW 1.6 mph 10.5 mph 80 % 0.0 in
15:35 9.0 °F 5.9 °F 993.1 in West 2.6 mph 10.5 mph 81 % 0.0 in
15:36 9.0 °F 5.9 °F 993.1 in West 2.3 mph 10.5 mph 81 % 0.0 in
15:41 8.9 °F 5.8 °F 993.1 in NW 1.1 mph 5.0 mph 81 % 0.0 in
15:43 8.9 °F 5.8 °F 993.1 in NW 0.8 mph 4.3 mph 81 % 0.0 in
15:44 8.9 °F 5.8 °F 993.1 in NW 0.3 mph 1.4 mph 81 % 0.0 in
15:49 8.8 °F 5.7 °F 993.1 in Calm   4.7 mph 81 % 0.0 in
15:50 8.8 °F 5.7 °F 993.1 in WSW 0.3 mph 4.7 mph 81 % 0.0 in
15:55 8.7 °F 5.6 °F 993.1 in WNW 2.7 mph 6.1 mph 81 % 0.0 in
15:56 8.7 °F 5.8 °F 993.1 in WNW 2.9 mph 6.1 mph 82 % 0.0 in
16:01 8.6 °F 5.7 °F 994.1 in NW 2.1 mph 6.1 mph 82 % 0.0 in
16:05 8.6 °F 5.7 °F 994.1 in NNW 0.8 mph 3.5 mph 82 % 0.0 in
16:10 8.5 °F 5.6 °F 994.1 in NW 0.5 mph 3.2 mph 82 % 0.0 in
16:11 8.5 °F 5.6 °F 994.1 in West 0.5 mph 4.3 mph 82 % 0.0 in
16:16 8.5 °F 5.6 °F 993.1 in West 1.6 mph 4.3 mph 82 % 0.0 in
16:17 8.5 °F 5.6 °F 993.1 in West 1.8 mph 4.3 mph 82 % 0.0 in
16:22 8.4 °F 5.5 °F 993.1 in WNW 2.6 mph 4.7 mph 82 % 0.0 in
16:27 8.4 °F 5.5 °F 993.1 in NW 2.6 mph 6.4 mph 82 % 0.0 in
16:29 8.5 °F 5.8 °F 993.1 in NW 2.6 mph 6.4 mph 83 % 0.0 in
16:34 8.5 °F 5.8 °F 993.1 in NW 2.6 mph 6.4 mph 83 % 0.0 in
16:36 8.5 °F 5.8 °F 993.1 in NW 2.7 mph 6.4 mph 83 % 0.0 in
16:37 8.5 °F 5.8 °F 993.1 in NW 2.6 mph 6.4 mph 83 % 0.0 in
16:42 8.7 °F 6.0 °F 993.1 in NW 3.2 mph 8.7 mph 83 % 0.0 in
16:43 8.8 °F 6.1 °F 993.1 in NW 3.7 mph 8.7 mph 83 % 0.0 in
16:48 9.1 °F 6.4 °F 993.1 in West 4.2 mph 8.7 mph 83 % 0.0 in
16:50 9.1 °F 6.4 °F 993.1 in West 4.3 mph 8.7 mph 83 % 0.0 in
16:55 9.3 °F 6.6 °F 993.1 in WSW 4.7 mph 9.0 mph 83 % 0.0 in
17:00 9.5 °F 6.8 °F 992.1 in West 3.5 mph 9.0 mph 83 % 0.0 in
17:04 9.9 °F 7.2 °F 992.1 in NNW 3.4 mph 9.0 mph 83 % 0.0 in
17:09 10.1 °F 7.2 °F 992.1 in NW 4.2 mph 10.1 mph 82 % 0.0 in
17:12 10.1 °F 7.0 °F 992.1 in WNW 3.5 mph 10.1 mph 81 % 0.0 in
17:15 10.1 °F 7.0 °F 992.1 in NNW 3.4 mph 10.1 mph 81 % 0.0 in
17:19 10.1 °F 7.0 °F 992.1 in ESE 3.2 mph 10.1 mph 81 % 0.0 in
17:24 10.1 °F 6.8 °F 992.1 in ESE 6.0 mph 12.6 mph 80 % 0.0 in
17:29 10.2 °F 6.9 °F 992.1 in ESE 6.1 mph 12.6 mph 80 % 0.3 in
17:30 10.2 °F 6.9 °F 992.1 in ESE 6.1 mph 12.6 mph 80 % 0.3 in
17:35 10.3 °F 6.8 °F 992.1 in ESE 5.1 mph 10.5 mph 79 % 0.3 in
17:36 10.3 °F 6.8 °F 992.1 in ESE 5.5 mph 10.5 mph 79 % 0.3 in
17:41 10.2 °F 6.7 °F 992.1 in East 4.2 mph 9.0 mph 79 % 0.3 in
17:46 10.1 °F 6.6 °F 992.1 in East 5.1 mph 11.6 mph 79 % 0.3 in
17:47 10.1 °F 6.6 °F 992.1 in East 5.1 mph 11.6 mph 79 % 0.3 in
17:48 10.1 °F 6.6 °F 992.1 in East 5.6 mph 11.6 mph 79 % 0.3 in
17:53 10.1 °F 6.4 °F 992.1 in ESE 7.6 mph 16.3 mph 78 % 0.3 in
17:57 10.1 °F 6.4 °F 992.1 in ESE 7.6 mph 16.3 mph 78 % 0.3 in
17:58 10.1 °F 6.4 °F 991.1 in ESE 7.4 mph 16.3 mph 78 % 0.3 in
18:03 10.1 °F 6.4 °F 991.1 in ESE 6.0 mph 10.1 mph 78 % 0.3 in
18:05 10.1 °F 6.4 °F 991.1 in ESE 5.6 mph 11.9 mph 78 % 0.3 in
18:10 10.1 °F 6.4 °F 991.1 in East 5.3 mph 11.9 mph 78 % 0.3 in
18:12 10.0 °F 6.3 °F 991.1 in ESE 5.6 mph 12.6 mph 78 % 0.3 in
18:17 10.0 °F 6.3 °F 990.1 in ESE 5.8 mph 12.6 mph 78 % 0.3 in
18:22 10.0 °F 6.3 °F 990.1 in ESE 5.3 mph 11.9 mph 78 % 0.3 in
18:23 10.0 °F 6.3 °F 990.1 in ESE 5.1 mph 11.9 mph 78 % 0.3 in
18:28 9.9 °F 6.2 °F 990.1 in ESE 5.0 mph 8.7 mph 78 % 0.0 in
18:30 9.9 °F 6.2 °F 990.1 in ESE 5.0 mph 8.7 mph 78 % 0.0 in
18:32 9.9 °F 6.2 °F 990.1 in ESE 5.3 mph 8.7 mph 78 % 0.0 in
18:37 9.9 °F 6.2 °F 990.1 in ESE 4.5 mph 8.7 mph 78 % 0.0 in
18:38 9.9 °F 6.2 °F 990.1 in East 4.2 mph 8.7 mph 78 % 0.0 in
18:43 9.7 °F 6.1 °F 991.1 in NE 3.1 mph 6.4 mph 78 % 0.0 in
18:47 9.7 °F 6.1 °F 991.1 in ENE 3.4 mph 9.3 mph 78 % 0.0 in
18:52 9.6 °F 6.1 °F 991.1 in ESE 3.5 mph 9.3 mph 79 % 0.0 in
18:57 9.7 °F 6.2 °F 991.1 in ESE 4.3 mph 9.3 mph 79 % 0.0 in
18:59 9.7 °F 6.2 °F 991.1 in ESE 4.5 mph 9.3 mph 79 % 0.0 in
19:04 9.7 °F 6.2 °F 991.1 in ESE 4.3 mph 9.3 mph 79 % 0.0 in
19:06 9.8 °F 6.3 °F 991.1 in ESE 4.5 mph 9.3 mph 79 % 0.0 in
19:07 9.8 °F 6.3 °F 991.1 in East 5.0 mph 10.5 mph 79 % 0.0 in
19:12 9.8 °F 6.3 °F 991.1 in East 4.8 mph 10.5 mph 79 % 0.0 in
19:13 9.8 °F 6.3 °F 991.1 in East 4.8 mph 10.5 mph 79 % 0.0 in
19:17 9.8 °F 6.3 °F 991.1 in ESE 3.7 mph 9.7 mph 79 % 0.0 in
19:22 9.9 °F 6.4 °F 991.1 in East 5.1 mph 9.7 mph 79 % 0.0 in
19:24 9.9 °F 6.4 °F 991.1 in East 5.3 mph 9.7 mph 79 % 0.0 in
19:29 9.9 °F 6.2 °F 990.1 in ESE 4.7 mph 9.3 mph 78 % 0.0 in
19:30 9.9 °F 6.2 °F 990.1 in ESE 4.5 mph 9.3 mph 78 % 0.0 in
19:35 9.9 °F 6.2 °F 990.1 in ESE 3.7 mph 7.9 mph 78 % 0.0 in
19:39 10.0 °F 6.3 °F 990.1 in East 4.3 mph 7.9 mph 78 % 0.0 in
19:44 10.0 °F 6.2 °F 990.1 in East 4.2 mph 7.9 mph 77 % 0.0 in
19:46 10.0 °F 6.2 °F 990.1 in ESE 3.5 mph 5.8 mph 77 % 0.0 in
19:51 9.9 °F 6.2 °F 990.1 in East 3.1 mph 8.7 mph 78 % 0.0 in
19:52 9.9 °F 6.2 °F 990.1 in ESE 3.2 mph 8.7 mph 78 % 0.0 in
19:57 9.9 °F 6.1 °F 990.1 in ESE 2.7 mph 8.7 mph 77 % 0.0 in
19:59 9.9 °F 6.1 °F 989.1 in ESE 3.2 mph 9.7 mph 77 % 0.0 in
20:04 9.9 °F 6.1 °F 989.1 in East 3.5 mph 9.7 mph 77 % 0.0 in
20:06 9.9 °F 6.1 °F 989.1 in East 3.7 mph 9.7 mph 77 % 0.0 in
20:10 9.8 °F 5.9 °F 989.1 in ENE 3.2 mph 8.7 mph 77 % 0.0 in
20:12 9.7 °F 5.8 °F 989.1 in ENE 3.2 mph 8.7 mph 77 % 0.0 in
20:17 9.7 °F 5.8 °F 989.1 in East 3.1 mph 8.7 mph 77 % 0.0 in
20:20 9.7 °F 5.8 °F 989.1 in ENE 2.4 mph 6.4 mph 77 % 0.0 in
20:25 9.4 °F 5.6 °F 989.1 in West 1.8 mph 5.0 mph 77 % 0.0 in
20:29 9.3 °F 5.4 °F 988.0 in NW 1.6 mph 5.5 mph 77 % 0.0 in
20:34 9.3 °F 5.4 °F 988.0 in NW 3.1 mph 6.1 mph 77 % 0.0 in
20:36 9.2 °F 5.6 °F 988.0 in NW 3.2 mph 6.1 mph 78 % 0.0 in
20:39 9.2 °F 5.6 °F 988.0 in NW 3.9 mph 6.1 mph 78 % 0.0 in
20:43 9.2 °F 5.6 °F 989.1 in NNW 3.5 mph 7.9 mph 78 % 0.0 in
20:48 9.2 °F 5.6 °F 989.1 in NE 3.2 mph 9.0 mph 78 % 0.0 in
20:51 9.2 °F 5.6 °F 989.1 in NE 2.7 mph 9.0 mph 78 % 0.0 in
20:56 9.1 °F 5.7 °F 989.1 in North 2.6 mph 9.0 mph 79 % 0.0 in
20:59 9.1 °F 5.7 °F 990.1 in NW 1.6 mph 6.4 mph 79 % 0.0 in
21:04 9.1 °F 5.7 °F 990.1 in NW 1.4 mph 4.0 mph 79 % 0.0 in
21:09 9.0 °F 5.6 °F 990.1 in NW 2.9 mph 6.9 mph 79 % 0.0 in
21:14 8.9 °F 5.6 °F 988.0 in NW 3.9 mph 6.9 mph 80 % 0.0 in
21:16 9.0 °F 5.7 °F 988.0 in NW 3.9 mph 6.1 mph 80 % 0.0 in
21:21 9.0 °F 5.7 °F 988.0 in NW 3.1 mph 5.8 mph 80 % 0.0 in
21:23 9.0 °F 5.7 °F 988.0 in NNW 3.2 mph 5.8 mph 80 % 0.0 in
21:28 8.9 °F 5.8 °F 988.0 in NNW 3.2 mph 6.1 mph 81 % 0.0 in
21:29 8.9 °F 5.8 °F 989.1 in NW 3.4 mph 6.1 mph 81 % 0.0 in
21:34 8.9 °F 5.8 °F 989.1 in NW 4.0 mph 6.1 mph 81 % 0.0 in
21:36 8.7 °F 5.6 °F 989.1 in NW 2.7 mph 5.5 mph 81 % 0.0 in
21:37 8.9 °F 5.8 °F 989.1 in NW 2.7 mph 5.5 mph 81 % 0.0 in
21:42 8.8 °F 5.7 °F 989.1 in NNW 1.9 mph 5.5 mph 81 % 0.0 in
21:43 8.8 °F 5.7 °F 989.1 in NNW 1.9 mph 5.5 mph 81 % 0.0 in
21:44 8.7 °F 5.6 °F 989.1 in NW 1.8 mph 5.5 mph 81 % 0.0 in
21:48 8.7 °F 5.6 °F 989.1 in NNE 1.9 mph 5.0 mph 81 % 0.0 in
21:51 8.7 °F 5.8 °F 989.1 in North 2.4 mph 5.0 mph 82 % 0.0 in
21:54 8.8 °F 5.9 °F 989.1 in North 2.4 mph 5.5 mph 82 % 0.0 in
21:57 8.7 °F 5.8 °F 989.1 in North 2.7 mph 5.5 mph 82 % 0.0 in
22:02 8.8 °F 5.9 °F 988.0 in WNW 3.4 mph 6.1 mph 82 % 0.0 in
22:05 8.8 °F 5.9 °F 988.0 in NW 3.9 mph 6.4 mph 82 % 0.0 in
22:10 8.8 °F 5.9 °F 988.0 in NNW 3.5 mph 6.4 mph 82 % 0.0 in
22:16 8.8 °F 5.9 °F 989.1 in NW 2.6 mph 4.7 mph 82 % 0.0 in
22:17 8.8 °F 5.9 °F 989.1 in NW 2.7 mph 6.4 mph 82 % 0.0 in
22:22 8.9 °F 6.2 °F 989.1 in NW 3.5 mph 6.4 mph 83 % 0.0 in
22:23 8.9 °F 6.2 °F 989.1 in NW 3.9 mph 6.4 mph 83 % 0.0 in
22:28 9.0 °F 6.1 °F 988.0 in WNW 4.8 mph 6.9 mph 82 % 0.0 in
22:29 9.0 °F 6.1 °F 988.0 in WNW 4.8 mph 6.9 mph 82 % 0.0 in
22:32 9.0 °F 6.1 °F 988.0 in WNW 5.5 mph 9.3 mph 82 % 0.0 in
22:35 9.0 °F 6.1 °F 988.0 in WNW 6.8 mph 16.9 mph 82 % 0.0 in
22:37 9.0 °F 6.1 °F 988.0 in West 7.4 mph 16.9 mph 82 % 0.0 in
22:42 9.0 °F 6.1 °F 988.0 in West 7.4 mph 16.9 mph 82 % 0.0 in
22:47 9.0 °F 6.1 °F 988.0 in NW 4.5 mph 10.5 mph 82 % 0.0 in
22:50 9.0 °F 6.1 °F 988.0 in WNW 4.5 mph 15.1 mph 82 % 0.0 in
22:55 9.0 °F 6.1 °F 988.0 in WSW 6.6 mph 16.6 mph 82 % 0.0 in
22:57 9.0 °F 6.1 °F 988.0 in SW 7.4 mph 19.1 mph 82 % 0.0 in
23:02 9.0 °F 6.1 °F 988.0 in WSW 7.2 mph 19.1 mph 82 % 0.0 in
23:06 9.0 °F 6.1 °F 988.0 in WSW 9.8 mph 27.7 mph 82 % 0.0 in
23:11 9.0 °F 6.1 °F 988.0 in WSW 12.7 mph 27.7 mph 82 % 0.0 in
23:12 9.0 °F 6.1 °F 988.0 in WSW 12.9 mph 27.7 mph 82 % 0.0 in
23:15 9.0 °F 6.1 °F 988.0 in WSW 14.8 mph 27.0 mph 82 % 0.0 in
23:19 9.0 °F 6.1 °F 988.0 in WSW 16.9 mph 34.6 mph 82 % 0.0 in
23:24 9.0 °F 6.1 °F 988.0 in WSW 14.8 mph 34.6 mph 82 % 0.0 in
23:25 9.0 °F 6.1 °F 988.0 in WSW 13.8 mph 34.6 mph 82 % 0.0 in
23:30 9.0 °F 6.1 °F 987.0 in WSW 13.0 mph 28.5 mph 82 % 0.0 in
23:35 9.0 °F 6.1 °F 987.0 in WSW 11.6 mph 28.5 mph 82 % 0.0 in
23:36 9.0 °F 6.1 °F 987.0 in WSW 11.6 mph 28.5 mph 82 % 0.0 in
23:41 9.0 °F 6.1 °F 987.0 in West 7.7 mph 16.3 mph 82 % 0.0 in
23:43 9.0 °F 6.1 °F 987.0 in West 7.6 mph 16.3 mph 82 % 0.0 in
23:48 9.0 °F 6.1 °F 987.0 in SW 8.2 mph 16.3 mph 82 % 0.0 in
23:50 9.0 °F 6.1 °F 987.0 in SSW 8.0 mph 16.3 mph 82 % 0.0 in
23:56 9.0 °F 6.1 °F 987.0 in SSE 6.4 mph 15.4 mph 82 % 0.0 in
23:57 9.0 °F 6.1 °F 987.0 in South 6.1 mph 12.2 mph 82 % 0.0 in
23:59 9.0 °F 6.1 °F 987.0 in South 5.5 mph 12.2 mph 82 % 0.0 in
Vremenska postaja Senovo
Podatki zbrani iz Weather Underground - 3.75 mb

Script developed by  Jim McMurry - jmcmurry@mwt.net Adapted for the template by  Wim van der Kuil - Leuven-Template.eu

Vremenski podatki so objavljeni na:

European Weather Network

WeatherCloud

Weather Underground

AWEKAS

HAMweather, WeatherForYou, PWS Weather

MapView

Geostik

Slovenia weather network

Oprema, ki se uporablja:

Vremenski program
Cumulus

Vremenski server
Asus

Cumulus

Asus